AIRPORT METAR

METAR FOR LICJ
ADDS - METARS form results

(1033 UTC 23 May 2018)
Data provider http://aviationweather.gov/adds/metars/
 
Forecast for: LICJ (PALERMO/POINT RA, IT)
Text: TAF LICJ 230500Z 2306/2406 VRB06KT 9999 SCT030
Forecast period: 0600 to 0800 UTC 23 May 2018
Forecast type: FROM: standard forecast or significant change
Winds: variable direction winds at 7 MPH (6 knots; 3.1 m/s)
Visibility: 6 or more miles (10+ km)
Clouds: scattered clouds at 3000 feet AGL
Weather: no significant weather forecast for this period
Forecast for: LICJ (PALERMO/POINT RA, IT)
Text: TAF LICJ 230500Z 2306/2406 VRB06KT 9999 SCT030
Forecast period: 0600 to 0800 UTC 23 May 2018
Forecast type: FROM: standard forecast or significant change
Winds: variable direction winds at 7 MPH (6 knots; 3.1 m/s)
Visibility: 6 or more miles (10+ km)
Clouds: scattered clouds at 3000 feet AGL
Weather: no significant weather forecast for this period
Forecast for: LICJ (PALERMO/POINT RA, IT)
Text: TAF LICJ 230500Z 2306/2406 VRB06KT 9999 SCT030
Forecast period: 0800 to 1800 UTC 23 May 2018
Forecast type: BECOMING: Conditions expected to become as follows by 1000 UTC 23 May 2018
Winds: from the W (270 degrees) at 12 MPH (10 knots; 5.2 m/s)
Visibility: 6 or more miles (10+ km)
Clouds: scattered clouds at 3000 feet AGL
Weather: no significant weather forecast for this period
Forecast for: LICJ (PALERMO/POINT RA, IT)
Text: TAF LICJ 230500Z 2306/2406 VRB06KT 9999 SCT030
Forecast period: 0800 to 1800 UTC 23 May 2018
Forecast type: BECOMING: Conditions expected to become as follows by 1000 UTC 23 May 2018
Winds: from the W (270 degrees) at 12 MPH (10 knots; 5.2 m/s)
Visibility: 6 or more miles (10+ km)
Clouds: scattered clouds at 3000 feet AGL
Weather: no significant weather forecast for this period
Forecast for: LICJ (PALERMO/POINT RA, IT)
Text: TAF LICJ 230500Z 2306/2406 VRB06KT 9999 SCT030
Forecast period: 1800 UTC 23 May 2018 to 0600 UTC 24 May 2018
Forecast type: BECOMING: Conditions expected to become as follows by 2000 UTC 23 May 2018
Winds: variable direction winds at 6 MPH (5 knots; 2.6 m/s)
Visibility: 6 or more miles (10+ km)
Clouds: scattered clouds at 3000 feet AGL
Weather: no significant weather forecast for this period
Forecast for: LICJ (PALERMO/POINT RA, IT)
Text: TAF LICJ 230500Z 2306/2406 VRB06KT 9999 SCT030
Forecast period: 1800 UTC 23 May 2018 to 0600 UTC 24 May 2018
Forecast type: BECOMING: Conditions expected to become as follows by 2000 UTC 23 May 2018
Winds: variable direction winds at 6 MPH (5 knots; 2.6 m/s)
Visibility: 6 or more miles (10+ km)
Clouds: scattered clouds at 3000 feet AGL
Weather: no significant weather forecast for this period

AIRPORT MAP

 RUNWAY INFORMATION
Runway 02 Runway length 6804 ft Runway width 148 ft
Runway elevation 42 ft Runway displaced threshold 10 ft Runway heading 24
Runway 20 Runway length 6804 ft Runway width 148 ft
Runway elevation 22 ft Runway displaced threshold 10 ft Runway heading 204
Runway 07 Runway length 10912 ft Runway width 197 ft
Runway elevation 33 ft Runway displaced threshold 404 ft Runway heading 67
Runway 25 Runway length 10912 ft Runway width 197 ft
Runway elevation 50 ft Runway displaced threshold 679 ft Runway heading 247

 AIRPORT FREQUENCIES
Type APP Name APP Frequency 120.2 MHZ
Type GND Name RAISI GND Frequency 121.625 MHZ
Type TWR Name RAISI TWR Frequency 119.05 MHZ

 AIRPORT NEAR NAVIGATION AIDS
Type VOR-DME Name Palermo Frequency 112300 KHZ
Type NDB Name Palermo Frequency 356 KHZ
Type VOR-DME Name Raisi Frequency 113000 KHZ
Type NDB Name Raisi Frequency 329 KHZ



© 2017 - Royal Sky Service, All Right Reserved. | Design & Developed by Davide Torresan